NCAR-RAP Real-Time Weather Data

Output produced by METARs form (24 April 2018  16:14 UTC)
found at http://weather.rap.ucar.edu/surface/
 
RJOA 241300Z 35016KT 3000 SHRA BCFG BR FEW000 SCT010 BKN020 14/13 Q1004
RJOA 241233Z 35016KT 2500 SHRA BCFG BR FEW000 SCT007 BKN010 15/15 Q1004 RMK 1ST000 3ST007 5CU010 A2965 FG SE-S AND SW-W
RJOA 241221Z 36016KT 1800 +SHRA BCFG BR FEW000 SCT007 BKN010 16/15 Q1004 RMK 1ST000 3ST007 5CU010 A2966 FG SE AND SW-W
RJOA 241217Z 36015G25KT 2500 SHRA BCFG BR FEW000 SCT007 BKN010 16/16 Q1004 RMK 1ST000 3ST007 5CU010 A2966 FG SE AND SW-W
RJOA 241200Z 01009KT 340V040 1600 +SHRA BCFG BR FEW000 SCT007 BKN010 17/16 Q1004
RJOA 241139Z 32005KT 240V350 1500 R10/1000VP1800U +SHRA BCFG BR FEW000 SCT004 BKN007 18/17 Q1004 RMK 1ST000 3ST004 5ST007 A2967 FG SE-S AND SW-W
RJOA 241128Z 33003KT 300V010 1200 R10/1000VP1800U +SHRA BCFG BR FEW000 SCT004 BKN007 18/17 Q1004 RMK 1ST000 3ST004 5ST007 A2967 FG SE-S AND SW-W
RJOA 241117Z 31004KT 1600 +SHRA BCFG BR FEW000 SCT004 BKN007 17/17 Q1004 RMK 1ST000 3ST004 5ST007 A2967 FG SE-S AND SW-W
RJOA 241100Z 27004KT 3000 SHRA BCFG BR FEW000 SCT003 BKN006 17/17 Q1004
RJOA 241035Z 28004KT 3000 SHRA BCFG BR FEW000 SCT003 BKN006 17/17 Q1004 RMK 1ST000 3ST003 5ST006 A2966 FG SE-S AND SW-W
RJOA 241023Z 25003KT 210V290 2000 SHRA BCFG BR FEW000 SCT003 BKN006 17/17 Q1004 RMK 1ST000 3ST003 5ST006 A2966 FG SE-S AND SW-W
RJOA 241011Z 26004KT 2000 SHRA BCFG BR FEW000 SCT005 BKN010 17/17 Q1004 RMK 1ST000 4ST005 5CU010 A2966 FG SE-S AND SW-W
RJOA 241000Z 28005KT 2500 SHRA BCFG BR FEW000 SCT006 BKN010 17/17 Q1004
RJOA 240926Z 30003KT 240V330 2000 SHRA BCFG BR FEW000 SCT006 BKN010 17/16 Q1004 RMK 1ST000 3ST006 5CU010 A2966 FG SE-S AND SW-W
RJOA 240917Z 29004KT 250V340 2000 +SHRA BCFG BR FEW000 SCT006 BKN010 17/16 Q1004 RMK 1ST000 3ST006 5CU010 A2965 FG SE-S AND SW-W
RJOA 240908Z VRB01KT 2500 SHRA BCFG BR FEW000 SCT008 BKN015 17/16 Q1004 RMK 1ST000 3ST008 5CU015 A2965 FG SE-S AND SW-W
RJOA 240900Z 00000KT 1800 SHRA BCFG BR FEW000 SCT003 BKN006 17/16 Q1004
RJOA 240846Z VRB02KT 1600 R10/1300VP1800N +SHRA BCFG BR FEW000 SCT001 BKN003 16/16 Q1004 RMK 1ST000 3ST001 5ST003 A2965 FG ALL QUAD
RJOA 240839Z 10003KT 070V180 1200 R10/1100VP1800U SHRA BCFG BR FEW000 SCT001 BKN003 16/16 Q1004 RMK 1ST000 3ST001 5ST003 A2965 FG ALL QUAD
RJOA 240836Z 11003KT 070V180 0800 R10/0700VP1800U SHRA FG FEW000 SCT001 BKN002 16/16 Q1004 RMK 1ST000 3ST001 5ST002 A2965
RJOA 240831Z 13003KT 090V160 0600 R10/0550V1700U SHRA FG FEW000 SCT001 BKN002 16/16 Q1004 RMK 1ST000 3ST001 5ST002 A2966
RJOA 240830Z VRB02KT 0500 R10/0400V1300U SHRA FG FEW000 SCT001 BKN002 16/16 Q1004 RMK 1ST000 3ST001 5ST002 A2966
RJOA 240828Z VRB02KT 0500 R10/0200V1100U -SHRA FG FEW000 SCT001 BKN002 16/16 Q1004 RMK 1ST000 3ST001 5ST002 A2966
RJOA 240824Z 13003KT 090V160 0500 R10/0200V0750U -SHRA FG FEW000 SCT001 BKN002 16/16 Q1004 RMK 1ST000 3ST001 5ST002 A2966
RJOA 240819Z 12004KT 090V160 0400 R10/0200V0300N -SHRA FG VV001 16/16 Q1004 RMK A2966
RJOA 240810Z 13003KT 080V180 0300 R10/0250V0750D -SHRA FG VV001 16/16 Q1004 RMK A2966
RJOA 240804Z 12004KT 080V170 0400 R10/0300V0750U -SHRA FG VV001 16/16 Q1004 RMK A2966
RJOA 240800Z 12004KT 100V170 0400 R10/0300V0500U -SHRA FG VV001 16/16 Q1004
RJOA 240744Z 13004KT 090V170 0300 R10/0250V0900D SHRA FG VV001 16/16 Q1004 RMK A2966
RJOA 240740Z 13004KT 100V170 0200 R10/0300V1000D SHRA FG VV001 16/16 Q1004 RMK A2966
RJOA 240734Z 13003KT 090V210 0200 R10/0350V1000U SHRA FG VV001 16/16 Q1004 RMK A2966
RJOA 240724Z 13005KT 100V200 0100 R10/0200V0450D SHRA FG VV001 16/16 Q1004 RMK A2966
RJOA 240718Z 14005KT 100V200 0400 R10/0300V0600D -SHRA FG VV001 16/16 Q1004 RMK A2967
RJOA 240714Z 13004KT 090V200 0400 R10/0350V0800D -SHRA FG VV001 16/16 Q1004 RMK A2966
RJOA 240703Z 13005KT 100V160 0400 R10/0300V1700D SHRA FG VV001 16/16 Q1004 RMK A2967
RJOA 240700Z 14005KT 110V190 0300 R10/0400V1700D SHRA FG VV001 16/16 Q1004
RJOA 240647Z 13004KT 090V170 0100 R10/0200V0350N SHRA FG VV001 16/16 Q1005 RMK A2968
RJOA 240638Z 13005KT 100V170 0100 R10/0200V0700N -SHRA FG VV001 16/16 Q1005 RMK A2968
RJOA 240617Z 12006KT 080V160 0200 R10/0200V0400U SHRA FG VV001 16/16 Q1005 RMK A2968
RJOA 240607Z 13006KT 090V170 0100 R10/0200V0350N -SHRA FG VV001 16/15 Q1005 RMK A2969
RJOA 240600Z 13006KT 080V160 0200 R10/0250V0800D SHRA FG VV001 16/15 Q1005
RJOA 240550Z 13006KT 090V170 0200 R10/0250V0300N SHRA FG VV001 16/16 Q1005 RMK A2969
RJOA 240500Z 13006KT 080V170 0200 R10/0300V0650N -SHRA FG VV001 16/16 Q1006
RJOA 240432Z 13006KT 100V170 0500 R10/0300V0800D SHRA FG FEW000 SCT001 BKN002 16/15 Q1006 RMK 1ST000 4ST001 6ST002 A2972
RJOA 240429Z 12006KT 080V170 0500 R10/0300V0800D SHRA FG FEW000 SCT001 BKN002 16/15 Q1006 RMK 1ST000 4ST001 6ST002 A2972
RJOA 240422Z 12007KT 080V160 0600 R10/0350V0800D SHRA FG FEW000 SCT001 BKN002 16/15 Q1006 RMK 1ST000 4ST001 6ST002 A2972
RJOA 240410Z 13007KT 090V170 0500 R10/0250V1600D SHRA FG FEW000 SCT001 BKN002 16/15 Q1006 RMK 1ST000 4ST001 6ST002 A2973
RJOA 240406Z 13006KT 090V170 0500 R10/0400V1600U SHRA FG FEW000 SCT001 BKN002 16/15 Q1006 RMK 1ST000 4ST001 6ST002 A2973
RJOA 240400Z 12006KT 090V160 0700 R10/0350V1800N SHRA FG FEW000 SCT002 BKN003 16/15 Q1007
RJOA 240346Z 12007KT 0800 R10/0300VP1800U SHRA FG FEW000 SCT002 BKN003 16/15 Q1007 RMK 1ST000 4ST002 6ST003 A2975
RJOA 240341Z 12006KT 0800 R10/0300VP1800D SHRA FG FEW000 SCT002 BKN003 16/15 Q1007 RMK 1ST000 4ST002 6ST003 A2975
RJOA 240339Z 12006KT 070V170 1200 R10/0600VP1800D SHRA BCFG BR FEW000 SCT002 BKN003 16/15 Q1007 RMK 1ST000 4ST002 6ST003 A2975 FG ALL QUAD
RJOA 240331Z 13006KT 070V170 1200 R10/1000VP1800U SHRA BCFG BR FEW000 SCT002 BKN003 16/15 Q1007 RMK 1ST000 4ST002 6ST003 A2975 FG ALL QUAD
RJOA 240324Z 11006KT 0900 R10/0800VP1800N SHRA FG FEW000 SCT001 BKN002 16/15 Q1007 RMK 1ST000 4ST001 6ST002 A2975
RJOA 240318Z 12006KT 090V180 0800 R10/0300VP1800U SHRA FG FEW000 SCT001 BKN002 16/15 Q1007 RMK 1ST000 4ST001 6ST002 A2975
RJOA 240307Z 13007KT 090V180 0600 R10/0200V1300U SHRA FG FEW000 SCT001 BKN002 16/15 Q1007 RMK 1ST000 4ST001 6ST002 A2976
RJOA 240300Z 12006KT 100V180 0800 R10/0200V0650D SHRA FG FEW000 SCT001 BKN003 16/15 Q1008
RJOA 240247Z 12005KT 0800 R10/0600VP1800D SHRA FG FEW000 SCT001 BKN003 16/15 Q1008 RMK 1ST000 4ST001 6ST003 A2978
RJOA 240232Z 13006KT 090V160 0800 R10/1000VP1800D SHRA FG FEW000 SCT001 BKN003 16/15 Q1008 RMK 1ST000 4ST001 6ST003 A2978
RJOA 240200Z 10009KT 0700 R10/1700U SHRA FG FEW000 SCT001 BKN003 16/15 Q1009
RJOA 240130Z 11006KT 1200 R10/1100VP1800U SHRA BCFG BR FEW000 BKN002 BKN005 16/15 Q1010 RMK 1ST000 5ST002 7ST005 A2983
RJOA 240119Z 12005KT 090V150 1200 R10/1000VP1800D SHRA BCFG BR FEW000 BKN002 BKN005 15/15 Q1010 RMK 1ST000 5ST002 7ST005 A2984
RJOA 240100Z 08004KT 050V120 1500 R10/P1800N SHRA BCFG BR FEW000 BKN002 BKN005 16/15 Q1010
RJOA 240033Z 09006KT 1500 R10/P1800N SHRA BCFG BR FEW000 BKN003 BKN020 15/15 Q1010 RMK 1ST000 5ST003 7CU020 A2983
RJOA 240000Z 09007KT 1500 R10/P1800N -SHRA BCFG BR FEW000 BKN002 BKN020 15/14 Q1010
RJOA 232328Z 07006KT 1500 R10/P1800N -SHRA BCFG BR FEW000 BKN005 BKN020 15/14 Q1011 RMK 1ST000 5ST005 7CU020 A2985
RJOA 232319Z 07005KT 1200 R10/P1800N SHRA BCFG BR FEW000 BKN005 BKN020 15/14 Q1011 RMK 1ST000 5ST005 7CU020 A2986
RJOA 232300Z 06006KT 1500 R10/P1800N -SHRA BCFG BR FEW000 BKN005 BKN030 15/14 Q1011
RJOA 232213Z 08004KT 060V120 2000 -SHRA BCFG BR FEW000 SCT015 BKN040 15/14 Q1011 RMK 1ST000 3CU015 7CU040 A2987 FG SE AND S-W
RJOA 232200Z 07004KT 2500 -SHRA BCFG BR FEW000 SCT015 BKN040 15/14 Q1011
RJOA 232110Z 06005KT 2000 -SHRA BCFG BR FEW000 SCT015 BKN040 15/14 Q1011 RMK 1ST000 3CU015 7CU040 A2988 FG SE AND SW-W
RJOA 231300Z 10003KT 8000 FEW015 BKN025 BKN040 16/14 Q1016
RJOA 231200Z 11003KT 070V140 9999 FEW015 SCT025 BKN040 16/13 Q1016
RJOA 231100Z 11003KT 9999 FEW015 BKN040 16/13 Q1016
RJOA 231000Z VRB02KT 9999 FEW015 BKN040 17/14 Q1016
RJOA 230900Z VRB02KT 9999 FEW020 BKN050 BKN080 17/14 Q1015
RJOA 230800Z 16003KT 110V200 9999 -RA FEW020 BKN050 BKN080 18/13 Q1015
RJOA 230700Z 21003KT 150V240 9999 -RA FEW030 BKN060 BKN090 19/12 Q1015
RJOA 230600Z 28004KT 240V320 9999 FEW030 BKN060 20/12 Q1016
RJOA 230500Z 28008KT 250V310 9999 FEW030 SCT060 BKN090 21/11 Q1016
RJOA 230442Z 25010KT 220V290 9999 FEW030 BKN090 21/10 Q1016 RMK 1CU030 7AC090 A3003
RJOA 230400Z 19004KT 120V230 9999 FEW030 BKN070 BKN110 21/10 Q1017
RJOA 230300Z 26007KT 9999 FEW030 SCT110 BKN140 21/11 Q1018
RJOA 230200Z 20004KT 080V240 9999 FEW025 BKN130 19/11 Q1018
RJOA 230100Z 23005KT 160V280 9999 FEW025 BKN130 19/11 Q1018
RJOA 230000Z VRB03KT 9999 FEW025 SCT/// 17/12 Q1019
RJOA 222300Z VRB02KT CAVOK 17/11 Q1019
RJOA 222200Z VRB02KT 9999 BCFG FEW000 BKN/// 15/11 Q1019
RJOA 222110Z 02001KT 9999 BCFG FEW000 BKN/// 14/11 Q1019 RMK 1ST000 A3010 FG BANK NE AND SE
RJOA 221300Z 29005KT CAVOK 16/11 Q1019
RJOA 221200Z VRB01KT CAVOK 16/11 Q1019
RJOA 221100Z 19003KT 150V220 CAVOK 17/10 Q1018
RJOA 221000Z VRB02KT CAVOK 17/10 Q1018
RJOA 220900Z 17003KT 130V210 CAVOK 20/10 Q1017
RJOA 220800Z 17004KT 120V230 CAVOK 22/09 Q1017
RJOA 220700Z 19006KT 130V240 CAVOK 24/10 Q1018
RJOA 220600Z 14004KT CAVOK 24/10 Q1018
RJOA 220500Z 18006KT 110V240 CAVOK 23/10 Q1019